Time;durP1;ratioP1;P1;durP2;ratioP2;P2;SDS_P1;SDS_P2;PMS_P1;PMS_P2;Temp;Humidity;BMP_temperature;BMP_pressure;BME280_temperature;BME280_humidity;BME280_pressure;Samples;Min_cycle;Max_cycle;Signal;HPM_P1;HPM_P2
2022/04/29 00:01:03;;;;;;;2.30;1.08;;;;;;;9.71;100.00;101552.38;7393957;19;20006;-58
2022/04/29 00:03:29;;;;;;;0.52;0.52;;;;;;;9.70;100.00;101558.38;7393012;19;20036;-58
2022/04/29 00:05:55;;;;;;;1.90;1.25;;;;;;;9.70;100.00;101555.59;7392692;19;20006;-58
2022/04/29 00:08:22;;;;;;;6.93;2.15;;;;;;;9.73;100.00;101554.72;7392753;19;20021;-56
2022/04/29 00:10:48;;;;;;;0.93;0.57;;;;;;;9.74;100.00;101553.53;7394787;19;20022;-56
2022/04/29 00:13:16;;;;;;;2.85;1.10;;;;;;;9.71;100.00;101552.38;7391719;19;20023;-56
2022/04/29 00:15:43;;;;;;;5.30;1.02;;;;;;;9.67;100.00;101548.09;7391761;19;20504;-58
2022/04/29 00:18:09;;;;;;;4.95;2.15;;;;;;;9.60;100.00;101551.03;7393260;19;20067;-56
2022/04/29 00:20:36;;;;;;;3.67;1.35;;;;;;;9.60;100.00;101551.03;7391771;19;20010;-58
2022/04/29 00:23:02;;;;;;;1.10;1.00;;;;;;;9.68;100.00;101556.00;7392819;19;20014;-56
2022/04/29 00:25:29;;;;;;;6.40;1.60;;;;;;;9.68;100.00;101547.66;7390145;19;20530;-56
2022/04/29 00:27:56;;;;;;;2.05;1.27;;;;;;;9.69;100.00;101548.47;7391563;19;20031;-56
2022/04/29 00:30:22;;;;;;;0.70;0.70;;;;;;;9.71;100.00;101537.69;7392131;19;20010;-56
2022/04/29 00:32:48;;;;;;;4.78;1.90;;;;;;;9.72;100.00;101539.28;7391510;19;20011;-56
2022/04/29 00:35:14;;;;;;;1.13;1.08;;;;;;;9.67;100.00;101542.53;7390108;19;20018;-56
2022/04/29 00:37:55;;;;;;;1.02;1.00;;;;;;;9.60;100.00;101540.69;7390134;19;20014;-56
2022/04/29 00:40:29;;;;;;;2.20;1.15;;;;;;;9.58;100.00;101533.97;7392954;19;20014;-58
2022/04/29 00:42:55;;;;;;;4.95;2.28;;;;;;;9.60;100.00;101531.56;7391283;19;20006;-56
2022/04/29 00:45:24;;;;;;;0.88;0.82;;;;;;;9.63;100.00;101523.16;7388210;19;20014;-57
2022/04/29 00:47:52;;;;;;;2.72;1.15;;;;;;;9.71;100.00;101519.00;7389683;19;20018;-56
2022/04/29 00:50:21;;;;;;;2.67;1.15;;;;;;;9.71;100.00;101521.78;7391345;19;20011;-56
2022/04/29 00:52:51;;;;;;;0.93;0.93;;;;;;;9.68;100.00;101519.09;7389880;19;20416;-56
2022/04/29 00:55:17;;;;;;;1.80;0.82;;;;;;;9.67;100.00;101517.50;7391014;19;20466;-56
2022/04/29 00:57:47;;;;;;;4.38;1.77;;;;;;;9.72;100.00;101514.22;7389851;19;20010;-56
2022/04/29 01:00:14;;;;;;;1.02;0.95;;;;;;;9.75;100.00;101507.78;7389425;19;20781;-56
2022/04/29 01:02:45;;;;;;;4.40;1.17;;;;;;;9.74;100.00;101507.03;7390229;19;20074;-56
2022/04/29 01:05:14;;;;;;;0.98;0.98;;;;;;;9.70;100.00;101499.97;7388625;19;20070;-57
2022/04/29 01:07:42;;;;;;;11.73;1.55;;;;;;;9.65;100.00;101498.47;7390823;19;20467;-56
2022/04/29 01:10:10;;;;;;;1.08;1.05;;;;;;;9.55;100.00;101504.25;7392599;19;20070;-56
2022/04/29 01:12:39;;;;;;;2.90;0.93;;;;;;;9.51;100.00;101492.41;7392799;19;20017;-57
2022/04/29 01:15:13;;;;;;;2.67;0.70;;;;;;;9.52;100.00;101480.06;7389696;19;20355;-56
2022/04/29 01:17:42;;;;;;;7.97;1.55;;;;;;;9.48;100.00;101487.72;7387056;19;20010;-57
2022/04/29 01:20:11;;;;;;;6.25;2.17;;;;;;;9.46;100.00;101484.56;7389072;19;20010;-56
2022/04/29 01:22:37;;;;;;;2.08;0.93;;;;;;;9.42;100.00;101483.88;7390212;19;20011;-56
2022/04/29 01:25:04;;;;;;;21.23;4.05;;;;;;;9.38;100.00;101472.78;7387351;19;20011;-56
2022/04/29 01:27:31;;;;;;;1.77;0.65;;;;;;;9.40;100.00;101480.72;7386587;19;20035;-56
2022/04/29 01:30:02;;;;;;;10.88;2.15;;;;;;;9.41;100.00;101483.06;7389388;19;20048;-56
2022/04/29 01:32:35;;;;;;;2.47;1.38;;;;;;;9.38;100.00;101477.56;7393121;19;20014;-56
2022/04/29 01:35:01;;;;;;;;;;;;;;;9.41;100.00;101479.50;7389255;19;20015;-56
2022/04/29 01:37:28;;;;;;;1.92;1.40;;;;;;;9.37;100.00;101471.25;7387692;19;19954;-56
2022/04/29 01:39:54;;;;;;;9.15;1.65;;;;;;;9.32;100.00;101473.72;7390614;19;20044;-56
2022/04/29 01:42:21;;;;;;;0.77;0.77;;;;;;;9.28;100.00;101475.78;7394199;19;20018;-56
2022/04/29 01:44:48;;;;;;;1.55;0.80;;;;;;;9.28;100.00;101464.69;7389699;19;20011;-57
2022/04/29 01:47:14;;;;;;;2.58;0.88;;;;;;;9.26;100.00;101462.34;7394268;19;20015;-57
2022/04/29 01:50:01;;;;;;;4.00;1.05;;;;;;;9.31;100.00;101461.06;7389636;19;20010;-57
2022/04/29 01:52:27;;;;;;;3.38;1.20;;;;;;;9.32;100.00;101462.59;7394060;19;20467;-56
2022/04/29 01:54:53;;;;;;;1.70;0.80;;;;;;;9.28;100.00;101473.00;7392222;19;20010;-56
2022/04/29 01:57:21;;;;;;;2.80;1.33;;;;;;;9.23;100.00;101476.28;7392856;19;20351;-56
2022/04/29 01:59:47;;;;;;;1.42;0.73;;;;;;;9.15;100.00;101476.44;7392502;19;20006;-56
2022/04/29 02:02:41;;;;;;;0.80;0.70;;;;;;;9.11;100.00;101474.94;7388752;19;20082;-56
2022/04/29 02:05:08;;;;;;;1.15;0.63;;;;;;;9.08;100.00;101476.56;7387148;19;20011;-57
2022/04/29 02:07:34;;;;;;;1.67;1.27;;;;;;;9.09;100.00;101477.38;7387553;19;20351;-57
2022/04/29 02:10:01;;;;;;;1.63;0.80;;;;;;;9.10;100.00;101478.91;7389051;19;20010;-57
2022/04/29 02:12:29;;;;;;;1.02;0.95;;;;;;;9.11;100.00;101478.50;7392447;19;20036;-56
2022/04/29 02:14:56;;;;;;;0.57;0.57;;;;;;;9.10;100.00;101479.69;7388243;19;20015;-56
2022/04/29 02:17:27;;;;;;;1.20;1.10;;;;;;;9.11;100.00;101475.72;7387483;19;20018;-56
2022/04/29 02:19:53;;;;;;;6.10;1.55;;;;;;;9.16;100.00;101472.44;7388426;19;20032;-56
2022/04/29 02:22:20;;;;;;;1.35;0.55;;;;;;;9.18;100.00;101471.25;7391156;19;20024;-57
2022/04/29 02:24:46;;;;;;;2.85;1.23;;;;;;;9.18;100.00;101481.13;7385663;19;20021;-57
2022/04/29 02:27:14;;;;;;;1.95;0.88;;;;;;;9.16;100.00;101471.66;7387008;19;20010;-57
2022/04/29 02:29:41;;;;;;;2.35;0.98;;;;;;;9.14;100.00;101474.84;7386879;19;20044;-56
2022/04/29 02:32:13;;;;;;;5.65;1.35;;;;;;;9.13;100.00;101473.31;7390934;19;20010;-56
2022/04/29 02:34:41;;;;;;;4.97;0.90;;;;;;;9.14;100.00;101468.50;7395359;19;20007;-57
2022/04/29 02:37:08;;;;;;;2.50;0.80;;;;;;;9.10;100.00;101471.38;7395541;19;20089;-56
2022/04/29 02:39:34;;;;;;;1.05;0.85;;;;;;;9.08;100.00;101471.00;7397157;19;20086;-56
2022/04/29 02:42:01;;;;;;;1.25;0.47;;;;;;;9.07;100.00;101463.88;7400687;19;20031;-56
2022/04/29 02:44:28;;;;;;;2.08;1.10;;;;;;;9.07;100.00;101466.66;7395315;19;20636;-56
2022/04/29 02:47:07;;;;;;;1.58;0.93;;;;;;;9.05;100.00;101471.84;7398419;19;20015;-56
2022/04/29 02:49:44;;;;;;;0.65;0.55;;;;;;;9.05;100.00;101480.19;7394766;19;20042;-57
2022/04/29 02:52:12;;;;;;;4.90;2.50;;;;;;;9.00;100.00;101480.69;7396275;19;20034;-56
2022/04/29 02:54:39;;;;;;;4.22;1.13;;;;;;;9.06;100.00;101480.97;7392965;19;20010;-57
2022/04/29 02:57:12;;;;;;;2.55;1.17;;;;;;;9.01;100.00;101475.91;7393342;19;20027;-56
2022/04/29 02:59:41;;;;;;;2.58;0.98;;;;;;;8.99;100.00;101479.13;7393592;19;20566;-57
2022/04/29 03:02:08;;;;;;;0.90;0.55;;;;;;;9.00;100.00;101480.69;7396837;19;20030;-56
2022/04/29 03:04:36;;;;;;;6.50;1.30;;;;;;;9.04;100.00;101475.84;7392165;19;20052;-56
2022/04/29 03:07:02;;;;;;;5.85;0.90;;;;;;;9.08;100.00;101475.78;7393010;19;20011;-56
2022/04/29 03:09:43;;;;;;;4.80;0.93;;;;;;;9.03;100.00;101471.50;7393801;19;20549;-56
2022/04/29 03:12:12;;;;;;;3.20;1.65;;;;;;;8.95;100.00;101467.28;7396785;19;20260;-56
2022/04/29 03:14:39;;;;;;;1.05;1.05;;;;;;;8.99;100.00;101465.22;7393393;19;20019;-56
2022/04/29 03:17:05;;;;;;;5.68;0.90;;;;;;;9.03;100.00;101474.28;7393816;19;20387;-56
2022/04/29 03:19:31;;;;;;;1.48;0.95;;;;;;;9.00;100.00;101468.78;7393327;19;20074;-56
2022/04/29 03:28:22;;;;;;;3.45;1.10;;;;;;;8.93;100.00;101458.59;7393183;19;20027;-56
2022/04/29 03:30:50;;;;;;;2.17;0.85;;;;;;;8.92;100.00;101457.00;7390440;19;20025;-56
2022/04/29 03:33:17;;;;;;;1.27;0.70;;;;;;;8.89;100.00;101457.88;7389798;19;20014;-56
2022/04/29 03:35:47;;;;;;;1.75;1.45;;;;;;;8.77;100.00;101455.69;7391234;19;20015;-56
2022/04/29 03:38:36;;;;;;;;;;;;;;;8.80;100.00;101454.88;7390939;19;20010;-56
2022/04/29 03:41:04;;;;;;;1.65;1.38;;;;;;;8.77;100.00;101452.16;7391638;19;19919;-56
2022/04/29 03:43:32;;;;;;;2.50;1.17;;;;;;;8.76;100.00;101451.38;7386549;19;20074;-56
2022/04/29 03:45:59;;;;;;;8.75;2.03;;;;;;;8.68;100.00;101463.81;7390474;19;20030;-56
2022/04/29 03:51:51;;;;;;;1.00;0.75;;;;;;;8.72;100.00;101453.44;7391741;19;20022;-56
2022/04/29 03:54:18;;;;;;;2.92;1.85;;;;;;;8.74;100.00;101455.78;7390748;19;20082;-56
2022/04/29 03:56:59;;;;;;;1.50;1.38;;;;;;;8.74;100.00;101462.13;7390429;19;20078;-56
2022/04/29 03:59:25;;;;;;;2.03;1.42;;;;;;;8.77;100.00;101466.81;7391643;19;20520;-56
2022/04/29 04:01:51;;;;;;;1.75;1.02;;;;;;;8.79;100.00;101458.06;7394629;19;20033;-56
2022/04/29 04:04:19;;;;;;;1.08;1.05;;;;;;;8.76;100.00;101459.72;7389369;19;20347;-56
2022/04/29 04:06:52;;;;;;;1.55;0.95;;;;;;;8.76;100.00;101464.47;7391065;19;20335;-56
2022/04/29 04:09:28;;;;;;;2.30;1.73;;;;;;;8.73;100.00;101463.31;7390771;19;20010;-56
2022/04/29 04:12:00;;;;;;;2.13;1.05;;;;;;;8.66;100.00;101466.25;7393754;19;20018;-56
2022/04/29 04:14:50;;;;;;;0.55;0.55;;;;;;;8.59;100.00;101455.25;7390454;19;20011;-56
2022/04/29 04:17:17;;;;;;;1.45;0.68;;;;;;;8.63;100.00;101458.75;7389640;19;20014;-56
2022/04/29 04:19:44;;;;;;;5.90;2.08;;;;;;;8.65;100.00;101452.75;7390999;19;20469;-56
2022/04/29 04:22:16;;;;;;;2.08;1.25;;;;;;;8.69;100.00;101451.50;7391557;19;20454;-55
2022/04/29 04:24:42;;;;;;;2.80;1.52;;;;;;;8.69;100.00;101453.47;7395679;19;20590;-56
2022/04/29 04:27:09;;;;;;;3.28;1.30;;;;;;;8.70;100.00;101452.28;7393416;19;20011;-55
2022/04/29 04:29:35;;;;;;;2.38;1.13;;;;;;;8.67;100.00;101451.13;7390623;19;20006;-56
2022/04/29 04:32:01;;;;;;;2.60;0.95;;;;;;;8.68;100.00;101452.72;7392614;19;20351;-55
2022/04/29 04:37:13;;;;;;;14.45;2.15;;;;;;;8.61;100.00;101457.59;7389176;19;20022;-57
2022/04/29 04:39:40;;;;;;;3.80;1.40;;;;;;;8.57;100.00;101452.13;7389054;19;20466;-55
2022/04/29 04:42:10;;;;;;;4.03;1.10;;;;;;;8.54;100.00;101452.94;7394017;19;20014;-55
2022/04/29 04:44:42;;;;;;;1.27;0.63;;;;;;;8.55;100.00;101454.53;7388484;19;20010;-55
2022/04/29 04:47:09;;;;;;;0.73;0.63;;;;;;;8.62;100.00;101459.94;7391343;19;20014;-57
2022/04/29 04:49:56;;;;;;;3.33;2.30;;;;;;;8.61;100.00;101463.94;7390055;19;20013;-55
2022/04/29 04:52:29;;;;;;;1.95;1.67;;;;;;;8.60;100.00;101456.81;7394774;19;20017;-57
2022/04/29 04:54:56;;;;;;;2.72;1.88;;;;;;;8.64;100.00;101468.63;7388309;19;20011;-56
2022/04/29 04:57:25;;;;;;;1.05;0.98;;;;;;;8.59;100.00;101466.34;7387828;19;20011;-57
2022/04/29 04:59:52;;;;;;;3.72;2.03;;;;;;;8.62;100.00;101470.28;7389921;19;20007;-55
2022/04/29 05:02:19;;;;;;;5.18;2.30;;;;;;;8.66;100.00;101466.25;7393796;19;20010;-56
2022/04/29 05:05:04;;;;;;;9.95;2.00;;;;;;;8.65;100.00;101469.41;7389749;19;20015;-56
2022/04/29 05:07:49;;;;;;;2.63;1.50;;;;;;;8.65;100.00;101464.66;7389065;19;20014;-57
2022/04/29 05:10:16;;;;;;;3.53;1.80;;;;;;;8.68;100.00;101463.81;7392793;19;20416;-57
2022/04/29 05:12:44;;;;;;;1.00;0.90;;;;;;;8.69;100.00;101465.38;7390092;19;20099;-57
2022/04/29 05:15:29;;;;;;;7.50;1.90;;;;;;;8.71;100.00;101471.28;7388872;19;20020;-57
2022/04/29 05:17:55;;;;;;;3.13;1.08;;;;;;;8.73;100.00;101471.66;7388802;19;20010;-57
2022/04/29 05:20:41;;;;;;;4.63;1.13;;;;;;;8.76;100.00;101479.16;7389637;19;20111;-58
2022/04/29 05:23:08;;;;;;;3.40;1.95;;;;;;;8.81;100.00;101489.78;7390242;19;20098;-57
2022/04/29 05:25:54;;;;;;;3.38;1.38;;;;;;;8.83;100.00;101476.25;7388303;19;20006;-57
2022/04/29 05:28:40;;;;;;;2.88;1.42;;;;;;;8.84;100.00;101483.38;7388388;19;20014;-56
2022/04/29 05:31:25;;;;;;;4.95;1.67;;;;;;;8.85;100.00;101486.94;7391159;19;20018;-56
2022/04/29 05:34:09;;;;;;;2.78;1.77;;;;;;;8.88;100.00;101486.84;7388221;19;20010;-56
2022/04/29 05:36:54;;;;;;;4.10;1.02;;;;;;;8.87;100.00;101487.28;7389742;19;20014;-56
2022/04/29 05:42:24;;;;;;;8.98;2.45;;;;;;;8.96;100.00;101485.53;7393626;19;20006;-56
2022/04/29 05:44:51;;;;;;;1.80;1.52;;;;;;;9.00;100.00;101485.47;7388999;19;20033;-56
2022/04/29 05:47:17;;;;;;;3.53;1.92;;;;;;;9.01;100.00;101487.81;7388143;19;20052;-56
2022/04/29 05:49:46;;;;;;;5.38;1.88;;;;;;;9.09;100.00;101489.28;7387232;19;20019;-56
2022/04/29 05:52:12;;;;;;;3.42;1.50;;;;;;;9.18;100.00;101486.69;7388113;19;20010;-84
2022/04/29 05:54:45;;;;;;;2.83;1.50;;;;;;;9.26;100.00;101490.13;7391474;19;20776;-84
2022/04/29 05:57:14;;;;;;;2.77;1.57;;;;;;;9.33;100.00;101492.00;7388080;19;20088;-85
2022/04/29 05:59:40;;;;;;;9.70;1.85;;;;;;;9.39;100.00;101488.28;7390589;19;20608;-86
2022/04/29 06:02:24;;;;;;;2.67;1.50;;;;;;;9.50;100.00;101490.84;7394204;19;20021;-88
2022/04/29 06:05:01;;;;;;;2.65;0.82;;;;;;;9.58;100.00;101489.47;7388512;19;20010;-87
2022/04/29 06:07:27;;;;;;;1.95;1.52;;;;;;;9.68;100.00;101496.84;7396341;19;20382;-88
2022/04/29 06:09:53;;;;;;;10.55;2.92;;;;;;;9.79;100.00;101483.44;7402597;19;20406;-86
2022/04/29 06:12:20;;;;;;;4.00;1.35;;;;;;;9.86;100.00;101486.09;7402222;19;20017;-87
2022/04/29 06:14:46;;;;;;;2.42;1.60;;;;;;;9.99;100.00;101487.00;7400289;19;20015;-86
2022/04/29 06:17:31;;;;;;;3.58;1.75;;;;;;;10.04;100.00;101485.69;7402596;19;20010;-86
2022/04/29 06:20:15;;;;;;;4.40;1.92;;;;;;;10.13;100.00;101481.16;7401569;19;20049;-87
2022/04/29 06:23:13;;;;;;;2.80;2.15;;;;;;;10.12;100.00;101487.91;7396963;19;20477;-87
2022/04/29 06:25:40;;;;;;;4.28;1.65;;;;;;;10.17;100.00;101490.19;7397717;19;20010;-87
2022/04/29 06:28:07;;;;;;;4.60;1.98;;;;;;;10.20;100.00;101488.56;7403668;19;20018;-86
2022/04/29 06:30:33;;;;;;;1.60;0.95;;;;;;;10.25;100.00;101491.59;7401513;19;20015;-86
2022/04/29 06:33:28;;;;;;;4.57;1.83;;;;;;;10.31;100.00;101492.63;7398553;19;20014;-87
2022/04/29 06:35:55;;;;;;;2.05;1.40;;;;;;;10.37;100.00;101499.25;7398252;19;20512;-86
2022/04/29 06:38:23;;;;;;;5.00;1.90;;;;;;;10.56;100.00;101500.41;7398131;19;20014;-86
2022/04/29 06:40:58;;;;;;;1.95;1.48;;;;;;;10.75;100.00;101509.88;7399368;19;20381;-87
2022/04/29 06:44:00;;;;;;;3.95;1.88;;;;;;;10.90;100.00;101508.28;7397647;19;20014;-87
2022/04/29 06:46:41;;;;;;;;;;;;;;;11.06;100.00;101499.91;7400608;19;20098;-87
2022/04/29 06:49:26;;;;;;;1.75;1.45;;;;;;;11.21;100.00;101509.47;7400908;19;20342;-87
2022/04/29 06:52:11;;;;;;;16.30;2.03;;;;;;;11.31;100.00;101508.38;7401927;19;20021;-87
2022/04/29 06:54:51;;;;;;;1.40;1.35;;;;;;;11.43;100.00;101511.19;7399364;19;20469;-87
2022/04/29 06:57:17;;;;;;;2.85;1.02;;;;;;;11.51;100.00;101508.22;7398675;19;20460;-87
2022/04/29 06:59:43;;;;;;;3.47;1.35;;;;;;;11.48;100.00;101509.88;7397410;19;20010;-87
2022/04/29 07:02:10;;;;;;;5.20;1.90;;;;;;;11.42;100.00;101511.66;7399050;19;20014;-87
2022/04/29 07:04:38;;;;;;;1.35;0.88;;;;;;;11.37;100.00;101509.41;7397301;19;20022;-88
2022/04/29 07:07:05;;;;;;;2.15;0.90;;;;;;;11.42;100.00;101506.06;7398444;19;20086;-89
2022/04/29 07:09:31;;;;;;;8.48;1.85;;;;;;;11.52;100.00;101507.78;7399709;19;20049;-89
2022/04/29 07:12:16;;;;;;;3.08;1.88;;;;;;;11.59;100.00;101504.00;7397965;19;20015;-89
2022/04/29 07:14:57;;;;;;;8.43;3.27;;;;;;;11.57;100.00;101504.44;7400353;19;20011;-89
2022/04/29 07:17:24;;;;;;;3.83;1.27;;;;;;;11.55;100.00;101503.31;7399142;19;20019;-90
2022/04/29 07:19:54;;;;;;;4.40;1.27;;;;;;;11.44;100.00;101510.00;7397242;19;20192;-89
2022/04/29 07:22:23;;;;;;;3.00;1.67;;;;;;;11.39;100.00;101512.56;7398152;19;20026;-89
2022/04/29 07:24:49;;;;;;;2.28;1.23;;;;;;;11.34;100.00;101510.28;7399966;19;20015;-89
2022/04/29 07:27:16;;;;;;;1.60;0.85;;;;;;;11.27;100.00;101514.06;7397134;19;20472;-90
2022/04/29 07:29:42;;;;;;;1.17;1.08;;;;;;;11.35;100.00;101511.84;7400076;19;20010;-89
2022/04/29 07:32:21;;;;;;;3.55;1.63;;;;;;;11.52;100.00;101516.13;7399675;19;20010;-89
2022/04/29 07:43:27;;;;;;;2.40;0.70;;;;;;;12.38;100.00;101515.19;7397048;19;20119;-85
2022/04/29 07:45:53;;;;;;;1.27;1.02;;;;;;;12.62;100.00;101513.59;7394550;19;20508;-85
2022/04/29 07:48:39;;;;;;;3.28;1.70;;;;;;;12.79;100.00;101512.22;7398459;19;20115;-85
2022/04/29 07:51:06;;;;;;;5.03;2.33;;;;;;;12.81;100.00;101512.56;7392913;19;20030;-78
2022/04/29 07:53:34;;;;;;;3.72;1.90;;;;;;;12.80;100.00;101524.97;7387042;19;20014;-79
2022/04/29 07:56:00;;;;;;;3.72;1.00;;;;;;;12.45;100.00;101524.13;7382177;19;20498;-79
2022/04/29 07:58:27;;;;;;;3.88;1.85;;;;;;;12.33;100.00;101529.72;7386800;19;20025;-78
2022/04/29 08:00:55;;;;;;;2.10;1.45;;;;;;;12.19;100.00;101534.50;7388065;19;20018;-77
2022/04/29 08:03:22;;;;;;;1.67;1.58;;;;;;;12.08;100.00;101539.63;7388735;19;20396;-80
2022/04/29 08:05:58;;;;;;;3.85;1.73;;;;;;;12.02;100.00;101537.84;7389186;19;20587;-78
2022/04/29 08:08:25;;;;;;;2.35;1.67;;;;;;;11.87;100.00;101543.06;7392134;19;20099;-78
2022/04/29 08:10:51;;;;;;;2.63;1.60;;;;;;;11.84;100.00;101543.19;7389689;19;20568;-78
2022/04/29 08:13:18;;;;;;;1.98;1.02;;;;;;;11.77;100.00;101544.16;7386893;19;20018;-78
2022/04/29 08:16:03;;;;;;;1.50;0.90;;;;;;;11.82;100.00;101551.22;7389606;19;20014;-78
2022/04/29 08:18:52;;;;;;;3.15;1.30;;;;;;;11.88;100.00;101547.44;7389155;19;20014;-78
2022/04/29 08:21:28;;;;;;;12.18;1.98;;;;;;;12.00;100.00;101546.66;7388879;19;20026;-79
2022/04/29 08:23:54;;;;;;;2.67;1.60;;;;;;;12.19;100.00;101558.88;7388181;19;20015;-79
2022/04/29 08:26:21;;;;;;;3.03;1.80;;;;;;;12.15;100.00;101547.81;7389563;19;20499;-79
2022/04/29 08:28:47;;;;;;;5.32;2.40;;;;;;;12.28;100.00;101545.00;7390905;19;20018;-79
2022/04/29 08:31:13;;;;;;;2.60;1.48;;;;;;;12.46;100.00;101552.84;7392049;19;20018;-79
2022/04/29 08:33:52;;;;;;;4.43;1.15;;;;;;;12.63;100.00;101559.88;7387656;19;20018;-79
2022/04/29 08:36:19;;;;;;;5.97;2.00;;;;;;;12.73;100.00;101551.13;7386691;19;20018;-79
2022/04/29 08:38:46;;;;;;;4.13;1.80;;;;;;;12.78;100.00;101558.19;7387974;19;20370;-79
2022/04/29 08:41:18;;;;;;;8.02;1.60;;;;;;;12.80;100.00;101552.94;7389700;19;20304;-79
2022/04/29 08:43:48;;;;;;;5.55;2.45;;;;;;;12.87;100.00;101547.09;7389220;19;20018;-79
2022/04/29 08:46:21;;;;;;;8.88;2.50;;;;;;;12.99;100.00;101551.91;7389548;19;20082;-78
2022/04/29 08:49:01;;;;;;;3.28;1.40;;;;;;;12.92;100.00;101552.13;7385379;19;20018;-80
2022/04/29 08:51:29;;;;;;;3.60;1.90;;;;;;;12.87;98.84;101558.28;7388228;19;20061;-80
2022/04/29 08:53:57;;;;;;;5.57;2.40;;;;;;;12.94;100.00;101563.66;7388993;19;20102;-80
2022/04/29 08:59:10;;;;;;;2.92;1.80;;;;;;;12.85;100.00;101566.34;7388290;19;20025;-79
2022/04/29 09:01:38;;;;;;;2.42;1.45;;;;;;;12.60;100.00;101563.59;7389981;19;20084;-79
2022/04/29 09:04:04;;;;;;;1.55;1.38;;;;;;;12.38;100.00;101566.28;7385244;19;20023;-80
2022/04/29 09:06:31;;;;;;;3.47;1.50;;;;;;;12.27;100.00;101571.41;7384428;19;20025;-79
2022/04/29 09:09:10;;;;;;;5.35;1.67;;;;;;;12.19;100.00;101565.22;7386578;19;20022;-80
2022/04/29 09:11:36;;;;;;;1.75;0.90;;;;;;;12.04;100.00;101572.47;7390317;19;20030;-78
2022/04/29 09:14:23;;;;;;;1.50;1.40;;;;;;;11.92;100.00;101562.06;7388528;19;20033;-79
2022/04/29 09:16:50;;;;;;;6.93;2.17;;;;;;;11.83;100.00;101567.50;7385602;19;20022;-81
2022/04/29 09:19:34;;;;;;;3.75;1.98;;;;;;;11.64;100.00;101574.00;7385707;19;20538;-80
2022/04/29 09:22:07;;;;;;;3.13;2.05;;;;;;;11.57;100.00;101573.41;7387608;19;20024;-80
2022/04/29 09:25:03;;;;;;;2.83;1.55;;;;;;;11.57;100.00;101565.03;7383636;19;20483;-79
2022/04/29 09:27:54;;;;;;;2.92;1.45;;;;;;;11.52;100.00;101560.78;7385178;19;20026;-79
2022/04/29 09:30:40;;;;;;;2.78;1.58;;;;;;;11.43;100.00;101569.03;7384294;19;20011;-79
2022/04/29 09:33:32;;;;;;;2.03;1.25;;;;;;;11.44;100.00;101571.38;7386638;19;20014;-79
2022/04/29 09:36:26;;;;;;;11.20;1.58;;;;;;;11.76;100.00;101573.28;7385283;19;20035;-78
2022/04/29 09:41:56;;;;;;;1.25;0.80;;;;;;;12.37;100.00;101561.91;7385262;19;20362;-78
2022/04/29 09:44:27;;;;;;;0.60;0.40;;;;;;;12.60;100.00;101555.19;7386287;19;20018;-79
2022/04/29 09:46:54;;;;;;;3.95;1.98;;;;;;;12.90;100.00;101557.41;7387427;19;20638;-79
2022/04/29 09:49:21;;;;;;;1.60;0.93;;;;;;;13.37;100.00;101568.59;7386380;19;20029;-79
2022/04/29 09:51:51;;;;;;;3.47;1.48;;;;;;;13.48;100.00;101560.59;7385890;19;20090;-79
2022/04/29 09:54:26;;;;;;;8.70;1.80;;;;;;;13.58;100.00;101563.03;7384488;19;20484;-79
2022/04/29 09:57:11;;;;;;;4.00;1.42;;;;;;;13.58;100.00;101557.41;7387206;19;20029;-79
2022/04/29 09:59:47;;;;;;;1.25;0.95;;;;;;;13.63;100.00;101556.84;7382691;19;20023;-79
2022/04/29 10:02:18;;;;;;;2.42;1.83;;;;;;;13.49;100.00;101560.16;7388554;19;20534;-79
2022/04/29 10:04:50;;;;;;;3.90;1.55;;;;;;;13.25;100.00;101559.03;7382080;19;20015;-79
2022/04/29 10:07:19;;;;;;;2.75;1.42;;;;;;;12.88;100.00;101562.66;7384971;19;20471;-79
2022/04/29 10:09:47;;;;;;;2.00;1.42;;;;;;;12.49;100.00;101557.56;7385530;19;20025;-79
2022/04/29 10:12:19;;;;;;;3.00;1.80;;;;;;;12.37;100.00;101563.91;7387736;19;20377;-80
2022/04/29 10:14:57;;;;;;;2.33;1.50;;;;;;;12.52;100.00;101553.84;7384789;19;20011;-79
2022/04/29 10:23:13;;;;;;;1.33;0.82;;;;;;;13.49;100.00;101546.16;7392450;19;20006;-56
2022/04/29 10:25:45;;;;;;;1.35;1.13;;;;;;;13.71;100.00;101542.59;7389585;19;20018;-56
2022/04/29 10:28:16;;;;;;;2.58;1.05;;;;;;;14.02;100.00;101546.19;7389363;19;20119;-56
2022/04/29 10:30:43;;;;;;;3.17;1.77;;;;;;;13.97;100.00;101535.59;7386590;19;20549;-56
2022/04/29 10:33:22;;;;;;;2.33;1.60;;;;;;;13.85;100.00;101542.06;7386303;19;20405;-56
2022/04/29 10:35:53;;;;;;;3.67;1.95;;;;;;;13.88;100.00;101532.75;7386632;19;20039;-56
2022/04/29 10:38:36;;;;;;;3.08;1.35;;;;;;;14.03;100.00;101526.16;7381535;19;20015;-56
2022/04/29 10:41:21;;;;;;;15.25;1.58;;;;;;;14.29;100.00;101529.56;7386086;19;20027;-55
2022/04/29 10:44:04;;;;;;;3.95;1.17;;;;;;;14.16;99.15;101523.25;7385708;19;20122;-57
2022/04/29 10:46:31;;;;;;;3.28;1.23;;;;;;;14.14;99.12;101514.53;7386450;19;20014;-56
2022/04/29 10:49:22;;;;;;;1.50;1.02;;;;;;;14.44;98.83;101505.34;7385372;19;20014;-56
2022/04/29 10:52:04;;;;;;;3.55;1.75;;;;;;;14.78;98.32;101505.13;7391374;19;20011;-56
2022/04/29 10:54:56;;;;;;;3.20;1.58;;;;;;;14.94;97.59;101515.28;7393682;19;20010;-56
2022/04/29 10:57:44;;;;;;;1.88;1.15;;;;;;;15.10;97.75;101506.53;7391535;19;20010;-55
2022/04/29 11:00:22;;;;;;;5.43;1.70;;;;;;;15.14;93.19;101516.38;7392880;19;20010;-56
2022/04/29 11:02:49;;;;;;;2.67;1.10;;;;;;;15.33;92.76;101513.59;7392271;19;20018;-56
2022/04/29 11:05:36;;;;;;;2.90;1.23;;;;;;;15.39;92.39;101511.69;7391024;19;20007;-55
2022/04/29 11:08:13;;;;;;;3.22;1.15;;;;;;;15.33;91.72;101513.59;7392977;19;20335;-55
2022/04/29 11:10:55;;;;;;;3.20;1.33;;;;;;;15.26;91.06;101511.88;7393435;19;20014;-55
2022/04/29 11:13:26;;;;;;;7.57;1.23;;;;;;;15.19;92.05;101510.16;7394301;19;20015;-55
2022/04/29 11:16:15;;;;;;;5.88;1.27;;;;;;;15.31;91.32;101507.66;7394566;19;20469;-55
2022/04/29 11:19:28;;;;;;;3.42;1.08;;;;;;;15.39;91.93;101508.91;7393994;19;20073;-56
2022/04/29 11:24:45;;;;;;;3.15;1.42;;;;;;;15.49;89.54;101504.84;7387824;19;20026;-80
2022/04/29 11:27:34;;;;;;;5.82;1.75;;;;;;;15.43;89.76;101512.31;7390644;19;20022;-81
2022/04/29 11:30:02;;;;;;;;;;;;;;;15.33;88.73;101507.97;7394219;19;20015;-86
2022/04/29 11:32:47;;;;;;;7.55;1.65;;;;;;;15.40;89.66;101505.59;7395257;19;19950;-94
2022/04/29 11:35:13;;;;;;;1.83;1.02;;;;;;;15.50;92.94;101506.44;7398179;19;20014;-93
2022/04/29 11:37:39;;;;;;;2.83;1.00;;;;;;;15.76;91.53;101502.81;7393751;19;20110;-92
2022/04/29 11:40:10;;;;;;;1.20;1.05;;;;;;;15.80;90.38;101497.00;7389349;19;20015;-89
2022/04/29 11:42:36;;;;;;;3.00;1.75;;;;;;;15.69;88.86;101496.72;7393306;19;20014;-86
2022/04/29 11:45:08;;;;;;;18.30;1.83;;;;;;;15.66;94.49;101492.03;7389527;19;20018;-94
2022/04/29 11:47:36;;;;;;;4.32;1.20;;;;;;;15.82;93.52;101494.50;7390928;19;20081;-91
2022/04/29 11:50:07;;;;;;;1.48;1.23;;;;;;;16.06;92.97;101498.19;7389873;19;20033;-88
2022/04/29 11:52:36;;;;;;;9.95;2.53;;;;;;;15.97;88.78;101492.59;7391917;19;20014;-84
2022/04/29 11:55:13;;;;;;;1.75;1.00;;;;;;;16.08;90.92;101492.88;7392459;19;20472;-95
2022/04/29 11:57:47;;;;;;;4.28;1.40;;;;;;;16.17;88.77;101492.84;7394375;19;20021;-82
2022/04/29 12:00:42;;;;;;;10.98;1.10;;;;;;;16.06;87.62;101484.13;7388645;19;20029;-82
2022/04/29 12:03:18;;;;;;;6.68;1.80;;;;;;;15.88;85.45;101484.19;7391898;19;20015;-84
2022/04/29 12:05:46;;;;;;;3.25;1.00;;;;;;;15.77;85.20;101486.72;7384239;19;20019;-90
2022/04/29 12:08:15;;;;;;;1.77;0.80;;;;;;;15.72;85.73;101484.56;7389294;19;20014;-83
2022/04/29 12:10:48;;;;;;;3.10;1.38;;;;;;;15.76;89.51;101487.97;7388108;19;20025;-89
2022/04/29 12:13:18;;;;;;;2.70;1.13;;;;;;;15.85;87.86;101473.91;7393744;19;20018;-85
2022/04/29 12:15:45;;;;;;;2.55;1.60;;;;;;;15.86;86.72;101470.63;7388248;19;20015;-85
2022/04/29 12:18:14;;;;;;;5.18;2.15;;;;;;;15.68;87.80;101462.22;7392808;19;20492;-84
2022/04/29 12:20:42;;;;;;;4.50;1.98;;;;;;;15.88;86.98;101458.91;7389619;19;20022;-91
2022/04/29 12:23:22;;;;;;;3.30;1.83;;;;;;;16.06;90.65;101472.88;7390041;19;20010;-82
2022/04/29 12:25:49;;;;;;;4.03;1.30;;;;;;;16.17;89.14;101459.09;7384938;19;20024;-82